sensor_id;sensor_type;location;lat;lon;timestamp;P1;durP1;ratioP1;P2;durP2;ratioP2
46889;SDS011;32625;51.080;16.970;2022-10-01T00:01:14;36.17;;;26.17;;
46889;SDS011;32625;51.080;16.970;2022-10-01T00:03:44;39.55;;;27.42;;
46889;SDS011;32625;51.080;16.970;2022-10-01T00:06:16;34.17;;;25.58;;
46889;SDS011;32625;51.080;16.970;2022-10-01T00:08:47;34.72;;;26.10;;
46889;SDS011;32625;51.080;16.970;2022-10-01T00:11:20;35.60;;;25.98;;
46889;SDS011;32625;51.080;16.970;2022-10-01T00:13:49;36.53;;;27.95;;
46889;SDS011;32625;51.080;16.970;2022-10-01T00:16:24;37.55;;;27.05;;
46889;SDS011;32625;51.080;16.970;2022-10-01T00:18:53;34.95;;;25.70;;
46889;SDS011;32625;51.080;16.970;2022-10-01T00:21:22;33.97;;;25.05;;
46889;SDS011;32625;51.080;16.970;2022-10-01T00:23:55;37.13;;;26.85;;
46889;SDS011;32625;51.080;16.970;2022-10-01T00:26:28;36.40;;;25.40;;
46889;SDS011;32625;51.080;16.970;2022-10-01T00:28:59;41.08;;;28.75;;
46889;SDS011;32625;51.080;16.970;2022-10-01T00:31:28;36.13;;;24.88;;
46889;SDS011;32625;51.080;16.970;2022-10-01T00:33:56;34.03;;;26.08;;
46889;SDS011;32625;51.080;16.970;2022-10-01T00:36:25;37.45;;;26.58;;
46889;SDS011;32625;51.080;16.970;2022-10-01T00:38:52;37.22;;;26.08;;
46889;SDS011;32625;51.080;16.970;2022-10-01T00:41:24;34.55;;;24.52;;
46889;SDS011;32625;51.080;16.970;2022-10-01T00:43:55;37.53;;;26.95;;
46889;SDS011;32625;51.080;16.970;2022-10-01T00:49:00;33.55;;;24.98;;
46889;SDS011;32625;51.080;16.970;2022-10-01T00:51:34;41.00;;;29.50;;
46889;SDS011;32625;51.080;16.970;2022-10-01T00:54:09;40.20;;;27.83;;
46889;SDS011;32625;51.080;16.970;2022-10-01T00:56:46;34.78;;;27.50;;
46889;SDS011;32625;51.080;16.970;2022-10-01T00:59:16;39.42;;;29.02;;
46889;SDS011;32625;51.080;16.970;2022-10-01T01:01:44;37.88;;;28.60;;
46889;SDS011;32625;51.080;16.970;2022-10-01T01:04:11;41.63;;;29.27;;
46889;SDS011;32625;51.080;16.970;2022-10-01T01:06:48;44.22;;;30.67;;
46889;SDS011;32625;51.080;16.970;2022-10-01T01:09:25;46.60;;;32.97;;
46889;SDS011;32625;51.080;16.970;2022-10-01T01:14:53;40.40;;;28.23;;
46889;SDS011;32625;51.080;16.970;2022-10-01T01:20:48;34.63;;;25.95;;
46889;SDS011;32625;51.080;16.970;2022-10-01T01:26:18;36.92;;;27.08;;
46889;SDS011;32625;51.080;16.970;2022-10-01T01:28:50;34.30;;;26.58;;
46889;SDS011;32625;51.080;16.970;2022-10-01T01:31:27;41.25;;;27.73;;
46889;SDS011;32625;51.080;16.970;2022-10-01T01:33:59;38.55;;;27.25;;
46889;SDS011;32625;51.080;16.970;2022-10-01T01:36:34;40.67;;;27.42;;
46889;SDS011;32625;51.080;16.970;2022-10-01T01:39:04;37.20;;;27.83;;
46889;SDS011;32625;51.080;16.970;2022-10-01T01:41:36;40.88;;;26.80;;
46889;SDS011;32625;51.080;16.970;2022-10-01T01:44:07;42.78;;;28.02;;
46889;SDS011;32625;51.080;16.970;2022-10-01T01:46:38;36.75;;;27.25;;
46889;SDS011;32625;51.080;16.970;2022-10-01T01:49:10;42.15;;;27.70;;
46889;SDS011;32625;51.080;16.970;2022-10-01T01:51:41;39.28;;;27.67;;
46889;SDS011;32625;51.080;16.970;2022-10-01T01:54:13;46.87;;;29.73;;
46889;SDS011;32625;51.080;16.970;2022-10-01T01:56:41;38.08;;;28.40;;
46889;SDS011;32625;51.080;16.970;2022-10-01T01:59:08;37.95;;;27.27;;
46889;SDS011;32625;51.080;16.970;2022-10-01T02:07:13;37.45;;;27.30;;
46889;SDS011;32625;51.080;16.970;2022-10-01T02:09:49;39.17;;;26.73;;
46889;SDS011;32625;51.080;16.970;2022-10-01T02:14:55;36.33;;;26.92;;
46889;SDS011;32625;51.080;16.970;2022-10-01T02:17:27;35.10;;;23.30;;
46889;SDS011;32625;51.080;16.970;2022-10-01T02:20:05;35.33;;;25.27;;
46889;SDS011;32625;51.080;16.970;2022-10-01T02:25:13;37.58;;;26.02;;
46889;SDS011;32625;51.080;16.970;2022-10-01T02:27:49;37.78;;;26.90;;
46889;SDS011;32625;51.080;16.970;2022-10-01T02:30:22;34.78;;;24.55;;
46889;SDS011;32625;51.080;16.970;2022-10-01T02:32:50;36.30;;;26.25;;
46889;SDS011;32625;51.080;16.970;2022-10-01T02:35:18;34.60;;;24.98;;
46889;SDS011;32625;51.080;16.970;2022-10-01T02:37:48;37.42;;;25.98;;
46889;SDS011;32625;51.080;16.970;2022-10-01T02:40:18;39.47;;;26.98;;
46889;SDS011;32625;51.080;16.970;2022-10-01T02:42:53;34.85;;;25.48;;
46889;SDS011;32625;51.080;16.970;2022-10-01T02:45:22;34.75;;;26.48;;
46889;SDS011;32625;51.080;16.970;2022-10-01T02:47:59;39.08;;;26.95;;
46889;SDS011;32625;51.080;16.970;2022-10-01T02:50:31;33.28;;;24.52;;
46889;SDS011;32625;51.080;16.970;2022-10-01T02:53:30;37.78;;;25.23;;
46889;SDS011;32625;51.080;16.970;2022-10-01T02:56:05;35.22;;;25.38;;
46889;SDS011;32625;51.080;16.970;2022-10-01T02:58:34;41.30;;;27.08;;
46889;SDS011;32625;51.080;16.970;2022-10-01T03:01:01;36.92;;;25.63;;
46889;SDS011;32625;51.080;16.970;2022-10-01T03:03:29;37.72;;;25.88;;
46889;SDS011;32625;51.080;16.970;2022-10-01T03:05:57;39.03;;;27.65;;
46889;SDS011;32625;51.080;16.970;2022-10-01T03:08:25;35.92;;;25.80;;
46889;SDS011;32625;51.080;16.970;2022-10-01T03:10:52;33.00;;;25.17;;
46889;SDS011;32625;51.080;16.970;2022-10-01T03:13:19;33.90;;;25.08;;
46889;SDS011;32625;51.080;16.970;2022-10-01T03:15:48;33.97;;;26.17;;
46889;SDS011;32625;51.080;16.970;2022-10-01T03:18:16;37.05;;;25.85;;
46889;SDS011;32625;51.080;16.970;2022-10-01T03:20:43;34.85;;;26.88;;
46889;SDS011;32625;51.080;16.970;2022-10-01T03:23:10;34.20;;;26.05;;
46889;SDS011;32625;51.080;16.970;2022-10-01T03:25:37;36.67;;;24.73;;
46889;SDS011;32625;51.080;16.970;2022-10-01T03:28:04;37.60;;;25.80;;
46889;SDS011;32625;51.080;16.970;2022-10-01T03:30:32;37.25;;;27.92;;
46889;SDS011;32625;51.080;16.970;2022-10-01T03:32:59;41.83;;;26.45;;
46889;SDS011;32625;51.080;16.970;2022-10-01T03:35:26;37.33;;;25.23;;
46889;SDS011;32625;51.080;16.970;2022-10-01T03:37:54;35.10;;;25.88;;
46889;SDS011;32625;51.080;16.970;2022-10-01T03:40:21;39.42;;;28.75;;
46889;SDS011;32625;51.080;16.970;2022-10-01T03:42:48;32.95;;;25.67;;
46889;SDS011;32625;51.080;16.970;2022-10-01T03:45:16;39.83;;;28.20;;
46889;SDS011;32625;51.080;16.970;2022-10-01T03:47:43;31.08;;;24.45;;
46889;SDS011;32625;51.080;16.970;2022-10-01T03:50:17;34.88;;;25.83;;
46889;SDS011;32625;51.080;16.970;2022-10-01T03:52:45;40.63;;;28.08;;
46889;SDS011;32625;51.080;16.970;2022-10-01T03:55:13;35.88;;;25.55;;
46889;SDS011;32625;51.080;16.970;2022-10-01T03:57:40;33.40;;;24.27;;
46889;SDS011;32625;51.080;16.970;2022-10-01T04:00:08;33.05;;;25.15;;
46889;SDS011;32625;51.080;16.970;2022-10-01T04:02:38;36.05;;;24.00;;
46889;SDS011;32625;51.080;16.970;2022-10-01T04:05:06;32.38;;;23.92;;
46889;SDS011;32625;51.080;16.970;2022-10-01T04:07:34;36.10;;;26.17;;
46889;SDS011;32625;51.080;16.970;2022-10-01T04:10:01;37.42;;;24.13;;
46889;SDS011;32625;51.080;16.970;2022-10-01T04:12:28;36.53;;;25.83;;
46889;SDS011;32625;51.080;16.970;2022-10-01T04:14:55;34.60;;;24.80;;
46889;SDS011;32625;51.080;16.970;2022-10-01T04:17:23;36.92;;;26.20;;
46889;SDS011;32625;51.080;16.970;2022-10-01T04:19:50;33.97;;;25.30;;
46889;SDS011;32625;51.080;16.970;2022-10-01T04:22:17;34.03;;;23.50;;
46889;SDS011;32625;51.080;16.970;2022-10-01T04:24:44;36.00;;;25.50;;
46889;SDS011;32625;51.080;16.970;2022-10-01T04:27:11;34.38;;;23.95;;
46889;SDS011;32625;51.080;16.970;2022-10-01T04:29:38;34.22;;;24.38;;
46889;SDS011;32625;51.080;16.970;2022-10-01T04:32:05;33.80;;;25.02;;
46889;SDS011;32625;51.080;16.970;2022-10-01T04:34:33;36.97;;;27.40;;
46889;SDS011;32625;51.080;16.970;2022-10-01T04:37:18;33.63;;;24.10;;
46889;SDS011;32625;51.080;16.970;2022-10-01T04:39:47;34.70;;;25.00;;
46889;SDS011;32625;51.080;16.970;2022-10-01T04:42:14;36.00;;;24.25;;
46889;SDS011;32625;51.080;16.970;2022-10-01T04:44:41;34.60;;;25.95;;
46889;SDS011;32625;51.080;16.970;2022-10-01T04:47:08;33.78;;;25.58;;
46889;SDS011;32625;51.080;16.970;2022-10-01T04:49:35;34.90;;;26.80;;
46889;SDS011;32625;51.080;16.970;2022-10-01T04:52:03;34.10;;;23.90;;
46889;SDS011;32625;51.080;16.970;2022-10-01T04:54:30;38.33;;;27.73;;
46889;SDS011;32625;51.080;16.970;2022-10-01T04:57:00;28.88;;;23.65;;
46889;SDS011;32625;51.080;16.970;2022-10-01T04:59:27;32.22;;;25.25;;
46889;SDS011;32625;51.080;16.970;2022-10-01T05:01:54;33.50;;;26.20;;
46889;SDS011;32625;51.080;16.970;2022-10-01T05:04:22;30.83;;;24.30;;
46889;SDS011;32625;51.080;16.970;2022-10-01T05:06:49;31.60;;;24.42;;
46889;SDS011;32625;51.080;16.970;2022-10-01T05:09:16;36.97;;;26.02;;
46889;SDS011;32625;51.080;16.970;2022-10-01T05:11:43;32.03;;;24.85;;
46889;SDS011;32625;51.080;16.970;2022-10-01T05:14:10;29.83;;;23.48;;
46889;SDS011;32625;51.080;16.970;2022-10-01T05:16:41;29.23;;;23.10;;
46889;SDS011;32625;51.080;16.970;2022-10-01T05:19:11;35.47;;;26.95;;
46889;SDS011;32625;51.080;16.970;2022-10-01T05:21:39;34.33;;;25.02;;
46889;SDS011;32625;51.080;16.970;2022-10-01T05:24:06;31.75;;;23.98;;
46889;SDS011;32625;51.080;16.970;2022-10-01T05:26:34;32.28;;;22.80;;
46889;SDS011;32625;51.080;16.970;2022-10-01T05:29:03;31.63;;;24.55;;
46889;SDS011;32625;51.080;16.970;2022-10-01T05:31:32;29.67;;;22.17;;
46889;SDS011;32625;51.080;16.970;2022-10-01T05:34:00;33.13;;;25.00;;
46889;SDS011;32625;51.080;16.970;2022-10-01T05:36:27;32.45;;;23.42;;
46889;SDS011;32625;51.080;16.970;2022-10-01T05:38:54;37.97;;;26.05;;
46889;SDS011;32625;51.080;16.970;2022-10-01T05:41:21;31.60;;;23.95;;
46889;SDS011;32625;51.080;16.970;2022-10-01T05:43:48;32.60;;;23.50;;
46889;SDS011;32625;51.080;16.970;2022-10-01T05:46:16;27.60;;;22.52;;
46889;SDS011;32625;51.080;16.970;2022-10-01T05:48:43;32.22;;;24.20;;
46889;SDS011;32625;51.080;16.970;2022-10-01T05:51:11;34.42;;;25.73;;
46889;SDS011;32625;51.080;16.970;2022-10-01T05:53:41;32.10;;;23.55;;
46889;SDS011;32625;51.080;16.970;2022-10-01T05:56:15;28.13;;;22.80;;
46889;SDS011;32625;51.080;16.970;2022-10-01T05:58:42;31.67;;;22.50;;
46889;SDS011;32625;51.080;16.970;2022-10-01T06:01:09;32.92;;;25.85;;
46889;SDS011;32625;51.080;16.970;2022-10-01T06:03:36;26.98;;;22.25;;
46889;SDS011;32625;51.080;16.970;2022-10-01T06:06:04;28.50;;;23.27;;
46889;SDS011;32625;51.080;16.970;2022-10-01T06:08:34;26.10;;;20.88;;
46889;SDS011;32625;51.080;16.970;2022-10-01T06:11:05;27.95;;;23.10;;
46889;SDS011;32625;51.080;16.970;2022-10-01T06:13:34;34.67;;;27.38;;
46889;SDS011;32625;51.080;16.970;2022-10-01T06:16:01;30.00;;;23.92;;
46889;SDS011;32625;51.080;16.970;2022-10-01T06:18:28;36.17;;;27.50;;
46889;SDS011;32625;51.080;16.970;2022-10-01T06:20:56;30.65;;;24.70;;
46889;SDS011;32625;51.080;16.970;2022-10-01T06:23:25;31.85;;;24.40;;
46889;SDS011;32625;51.080;16.970;2022-10-01T06:25:52;29.02;;;24.33;;
46889;SDS011;32625;51.080;16.970;2022-10-01T06:28:20;30.30;;;24.00;;
46889;SDS011;32625;51.080;16.970;2022-10-01T06:30:47;30.60;;;24.38;;
46889;SDS011;32625;51.080;16.970;2022-10-01T06:33:15;31.35;;;24.05;;
46889;SDS011;32625;51.080;16.970;2022-10-01T06:35:45;27.25;;;23.42;;
46889;SDS011;32625;51.080;16.970;2022-10-01T06:38:14;27.83;;;22.63;;
46889;SDS011;32625;51.080;16.970;2022-10-01T06:40:42;32.10;;;26.30;;
46889;SDS011;32625;51.080;16.970;2022-10-01T06:43:09;35.28;;;27.02;;
46889;SDS011;32625;51.080;16.970;2022-10-01T06:45:38;31.38;;;23.33;;
46889;SDS011;32625;51.080;16.970;2022-10-01T06:48:09;33.90;;;25.17;;
46889;SDS011;32625;51.080;16.970;2022-10-01T06:50:40;38.13;;;27.02;;
46889;SDS011;32625;51.080;16.970;2022-10-01T06:53:10;37.70;;;27.20;;
46889;SDS011;32625;51.080;16.970;2022-10-01T06:55:38;36.65;;;25.92;;
46889;SDS011;32625;51.080;16.970;2022-10-01T06:58:07;35.95;;;27.95;;
46889;SDS011;32625;51.080;16.970;2022-10-01T07:00:39;32.38;;;25.52;;
46889;SDS011;32625;51.080;16.970;2022-10-01T07:03:07;31.02;;;25.35;;
46889;SDS011;32625;51.080;16.970;2022-10-01T07:05:37;37.03;;;26.83;;
46889;SDS011;32625;51.080;16.970;2022-10-01T07:08:04;31.85;;;24.73;;
46889;SDS011;32625;51.080;16.970;2022-10-01T07:10:33;34.92;;;24.45;;
46889;SDS011;32625;51.080;16.970;2022-10-01T07:13:11;34.55;;;24.88;;
46889;SDS011;32625;51.080;16.970;2022-10-01T07:15:43;30.75;;;23.10;;
46889;SDS011;32625;51.080;16.970;2022-10-01T07:18:11;31.30;;;26.27;;
46889;SDS011;32625;51.080;16.970;2022-10-01T07:20:39;29.90;;;22.85;;
46889;SDS011;32625;51.080;16.970;2022-10-01T07:23:08;32.35;;;24.23;;
46889;SDS011;32625;51.080;16.970;2022-10-01T07:25:37;30.67;;;24.05;;
46889;SDS011;32625;51.080;16.970;2022-10-01T07:28:06;37.08;;;24.95;;
46889;SDS011;32625;51.080;16.970;2022-10-01T07:30:43;32.17;;;22.77;;
46889;SDS011;32625;51.080;16.970;2022-10-01T07:33:24;30.13;;;22.30;;
46889;SDS011;32625;51.080;16.970;2022-10-01T07:35:52;38.33;;;24.40;;
46889;SDS011;32625;51.080;16.970;2022-10-01T07:38:20;32.78;;;25.05;;
46889;SDS011;32625;51.080;16.970;2022-10-01T07:40:50;31.45;;;25.65;;
46889;SDS011;32625;51.080;16.970;2022-10-01T07:43:18;31.58;;;25.77;;
46889;SDS011;32625;51.080;16.970;2022-10-01T07:45:45;30.55;;;24.80;;
46889;SDS011;32625;51.080;16.970;2022-10-01T07:48:15;32.97;;;25.45;;
46889;SDS011;32625;51.080;16.970;2022-10-01T07:50:43;32.30;;;25.63;;
46889;SDS011;32625;51.080;16.970;2022-10-01T07:53:10;30.35;;;24.75;;
46889;SDS011;32625;51.080;16.970;2022-10-01T07:55:38;27.15;;;24.13;;
46889;SDS011;32625;51.080;16.970;2022-10-01T07:58:05;33.08;;;25.05;;
46889;SDS011;32625;51.080;16.970;2022-10-01T08:00:33;32.72;;;23.35;;
46889;SDS011;32625;51.080;16.970;2022-10-01T08:03:01;29.45;;;23.40;;
46889;SDS011;32625;51.080;16.970;2022-10-01T08:05:30;33.40;;;26.13;;
46889;SDS011;32625;51.080;16.970;2022-10-01T08:08:03;28.65;;;24.13;;
46889;SDS011;32625;51.080;16.970;2022-10-01T08:10:33;24.53;;;21.07;;
46889;SDS011;32625;51.080;16.970;2022-10-01T08:13:06;29.48;;;24.73;;
46889;SDS011;32625;51.080;16.970;2022-10-01T08:15:43;28.70;;;24.30;;
46889;SDS011;32625;51.080;16.970;2022-10-01T08:18:12;29.02;;;24.23;;
46889;SDS011;32625;51.080;16.970;2022-10-01T08:20:39;24.80;;;20.65;;
46889;SDS011;32625;51.080;16.970;2022-10-01T08:23:10;26.08;;;22.35;;
46889;SDS011;32625;51.080;16.970;2022-10-01T08:25:41;27.92;;;22.50;;
46889;SDS011;32625;51.080;16.970;2022-10-01T08:28:10;30.90;;;23.77;;
46889;SDS011;32625;51.080;16.970;2022-10-01T08:30:38;28.02;;;22.15;;
46889;SDS011;32625;51.080;16.970;2022-10-01T08:33:09;28.98;;;21.55;;
46889;SDS011;32625;51.080;16.970;2022-10-01T08:35:38;26.70;;;21.42;;
46889;SDS011;32625;51.080;16.970;2022-10-01T08:38:06;27.92;;;21.75;;
46889;SDS011;32625;51.080;16.970;2022-10-01T08:40:34;24.63;;;18.83;;
46889;SDS011;32625;51.080;16.970;2022-10-01T08:43:27;23.35;;;20.60;;
46889;SDS011;32625;51.080;16.970;2022-10-01T08:46:03;24.55;;;20.33;;
46889;SDS011;32625;51.080;16.970;2022-10-01T08:48:42;24.42;;;21.25;;
46889;SDS011;32625;51.080;16.970;2022-10-01T08:51:29;21.33;;;17.38;;
46889;SDS011;32625;51.080;16.970;2022-10-01T08:56:54;20.20;;;17.58;;
46889;SDS011;32625;51.080;16.970;2022-10-01T09:01:55;41.03;;;16.65;;
46889;SDS011;32625;51.080;16.970;2022-10-01T09:04:25;19.63;;;16.27;;
46889;SDS011;32625;51.080;16.970;2022-10-01T09:06:56;18.27;;;16.38;;
46889;SDS011;32625;51.080;16.970;2022-10-01T09:09:37;21.85;;;16.17;;
46889;SDS011;32625;51.080;16.970;2022-10-01T09:15:09;16.70;;;14.18;;
46889;SDS011;32625;51.080;16.970;2022-10-01T09:17:57;14.20;;;12.63;;
46889;SDS011;32625;51.080;16.970;2022-10-01T09:20:42;14.43;;;12.82;;
46889;SDS011;32625;51.080;16.970;2022-10-01T09:23:22;12.15;;;10.77;;
46889;SDS011;32625;51.080;16.970;2022-10-01T09:25:57;17.00;;;12.13;;
46889;SDS011;32625;51.080;16.970;2022-10-01T09:33:43;14.38;;;11.00;;
46889;SDS011;32625;51.080;16.970;2022-10-01T09:36:30;12.27;;;10.95;;
46889;SDS011;32625;51.080;16.970;2022-10-01T09:41:35;14.05;;;10.65;;
46889;SDS011;32625;51.080;16.970;2022-10-01T09:44:03;12.02;;;9.23;;
46889;SDS011;32625;51.080;16.970;2022-10-01T09:46:31;12.27;;;10.27;;
46889;SDS011;32625;51.080;16.970;2022-10-01T09:49:02;11.43;;;9.93;;
46889;SDS011;32625;51.080;16.970;2022-10-01T09:51:51;11.27;;;9.70;;
46889;SDS011;32625;51.080;16.970;2022-10-01T10:00:16;12.30;;;10.23;;
46889;SDS011;32625;51.080;16.970;2022-10-01T10:02:51;17.45;;;10.02;;
46889;SDS011;32625;51.080;16.970;2022-10-01T10:05:29;14.52;;;10.43;;
46889;SDS011;32625;51.080;16.970;2022-10-01T10:08:13;11.57;;;9.60;;
46889;SDS011;32625;51.080;16.970;2022-10-01T10:10:48;14.98;;;10.70;;
46889;SDS011;32625;51.080;16.970;2022-10-01T10:13:26;14.88;;;11.27;;
46889;SDS011;32625;51.080;16.970;2022-10-01T10:16:14;13.00;;;10.38;;
46889;SDS011;32625;51.080;16.970;2022-10-01T10:19:34;13.00;;;10.13;;
46889;SDS011;32625;51.080;16.970;2022-10-01T10:21:52;13.32;;;9.90;;
46889;SDS011;32625;51.080;16.970;2022-10-01T10:24:32;15.68;;;9.70;;
46889;SDS011;32625;51.080;16.970;2022-10-01T10:27:02;13.90;;;9.90;;
46889;SDS011;32625;51.080;16.970;2022-10-01T10:29:32;12.20;;;8.52;;
46889;SDS011;32625;51.080;16.970;2022-10-01T10:32:06;11.73;;;9.40;;
46889;SDS011;32625;51.080;16.970;2022-10-01T10:34:48;12.68;;;8.88;;
46889;SDS011;32625;51.080;16.970;2022-10-01T10:37:17;11.30;;;8.35;;
46889;SDS011;32625;51.080;16.970;2022-10-01T10:39:53;10.75;;;9.20;;
46889;SDS011;32625;51.080;16.970;2022-10-01T10:42:21;11.43;;;9.40;;
46889;SDS011;32625;51.080;16.970;2022-10-01T10:44:51;12.77;;;9.55;;
46889;SDS011;32625;51.080;16.970;2022-10-01T10:47:21;14.30;;;8.98;;
46889;SDS011;32625;51.080;16.970;2022-10-01T10:58:08;9.98;;;8.35;;
46889;SDS011;32625;51.080;16.970;2022-10-01T11:00:42;9.82;;;7.80;;
46889;SDS011;32625;51.080;16.970;2022-10-01T11:03:13;9.45;;;8.23;;
46889;SDS011;32625;51.080;16.970;2022-10-01T11:05:43;10.48;;;7.95;;
46889;SDS011;32625;51.080;16.970;2022-10-01T11:08:11;10.52;;;7.50;;
46889;SDS011;32625;51.080;16.970;2022-10-01T11:11:06;11.65;;;8.50;;
46889;SDS011;32625;51.080;16.970;2022-10-01T11:16:35;9.75;;;6.95;;
46889;SDS011;32625;51.080;16.970;2022-10-01T11:24:54;3.78;;;2.38;;
46889;SDS011;32625;51.080;16.970;2022-10-01T11:27:47;7.32;;;2.75;;
46889;SDS011;32625;51.080;16.970;2022-10-01T11:30:42;8.40;;;2.20;;
46889;SDS011;32625;51.080;16.970;2022-10-01T11:39:01;4.13;;;2.63;;
46889;SDS011;32625;51.080;16.970;2022-10-01T11:41:39;5.40;;;3.28;;
46889;SDS011;32625;51.080;16.970;2022-10-01T11:49:44;3.78;;;2.95;;
46889;SDS011;32625;51.080;16.970;2022-10-01T11:52:31;4.35;;;2.70;;
46889;SDS011;32625;51.080;16.970;2022-10-01T11:58:29;3.10;;;2.80;;
46889;SDS011;32625;51.080;16.970;2022-10-01T12:01:23;3.60;;;2.70;;
46889;SDS011;32625;51.080;16.970;2022-10-01T12:04:03;4.85;;;2.70;;
46889;SDS011;32625;51.080;16.970;2022-10-01T12:09:47;4.68;;;2.70;;
46889;SDS011;32625;51.080;16.970;2022-10-01T12:17:58;4.10;;;3.70;;
46889;SDS011;32625;51.080;16.970;2022-10-01T12:23:04;5.03;;;3.33;;
46889;SDS011;32625;51.080;16.970;2022-10-01T12:25:46;4.22;;;3.10;;
46889;SDS011;32625;51.080;16.970;2022-10-01T12:28:56;4.00;;;3.10;;
46889;SDS011;32625;51.080;16.970;2022-10-01T12:31:33;3.45;;;3.00;;
46889;SDS011;32625;51.080;16.970;2022-10-01T12:34:10;4.53;;;2.30;;
46889;SDS011;32625;51.080;16.970;2022-10-01T12:39:43;4.68;;;2.60;;
46889;SDS011;32625;51.080;16.970;2022-10-01T12:53:30;3.85;;;3.13;;
46889;SDS011;32625;51.080;16.970;2022-10-01T12:56:23;3.65;;;2.90;;
46889;SDS011;32625;51.080;16.970;2022-10-01T13:04:36;3.42;;;2.67;;
46889;SDS011;32625;51.080;16.970;2022-10-01T13:15:25;6.55;;;5.38;;
46889;SDS011;32625;51.080;16.970;2022-10-01T13:21:07;23.63;;;12.15;;
46889;SDS011;32625;51.080;16.970;2022-10-01T13:24:00;16.33;;;11.00;;
46889;SDS011;32625;51.080;16.970;2022-10-01T13:26:51;19.35;;;13.45;;
46889;SDS011;32625;51.080;16.970;2022-10-01T13:29:30;26.20;;;17.13;;
46889;SDS011;32625;51.080;16.970;2022-10-01T13:32:32;12.25;;;8.05;;
46889;SDS011;32625;51.080;16.970;2022-10-01T13:38:15;10.65;;;5.63;;
46889;SDS011;32625;51.080;16.970;2022-10-01T13:41:01;5.80;;;4.65;;
46889;SDS011;32625;51.080;16.970;2022-10-01T13:43:58;5.25;;;3.85;;
46889;SDS011;32625;51.080;16.970;2022-10-01T13:46:28;4.60;;;4.07;;
46889;SDS011;32625;51.080;16.970;2022-10-01T13:49:00;6.80;;;4.50;;
46889;SDS011;32625;51.080;16.970;2022-10-01T13:51:33;7.20;;;3.65;;
46889;SDS011;32625;51.080;16.970;2022-10-01T13:54:02;4.53;;;3.80;;
46889;SDS011;32625;51.080;16.970;2022-10-01T13:56:35;3.75;;;3.17;;
46889;SDS011;32625;51.080;16.970;2022-10-01T13:59:04;5.75;;;3.40;;
46889;SDS011;32625;51.080;16.970;2022-10-01T14:01:52;6.63;;;4.03;;
46889;SDS011;32625;51.080;16.970;2022-10-01T14:04:21;3.83;;;3.38;;
46889;SDS011;32625;51.080;16.970;2022-10-01T14:07:02;4.35;;;3.92;;
46889;SDS011;32625;51.080;16.970;2022-10-01T14:09:53;5.35;;;4.20;;
46889;SDS011;32625;51.080;16.970;2022-10-01T14:12:26;4.10;;;3.70;;
46889;SDS011;32625;51.080;16.970;2022-10-01T14:15:16;6.25;;;3.50;;
46889;SDS011;32625;51.080;16.970;2022-10-01T14:18:05;4.63;;;3.90;;
46889;SDS011;32625;51.080;16.970;2022-10-01T14:20:51;6.47;;;5.18;;
46889;SDS011;32625;51.080;16.970;2022-10-01T14:23:49;7.90;;;4.22;;
46889;SDS011;32625;51.080;16.970;2022-10-01T14:32:02;5.25;;;3.95;;
46889;SDS011;32625;51.080;16.970;2022-10-01T14:37:44;5.85;;;3.25;;
46889;SDS011;32625;51.080;16.970;2022-10-01T14:40:19;4.70;;;3.60;;
46889;SDS011;32625;51.080;16.970;2022-10-01T14:42:55;4.63;;;3.35;;
46889;SDS011;32625;51.080;16.970;2022-10-01T14:45:24;5.60;;;3.55;;
46889;SDS011;32625;51.080;16.970;2022-10-01T14:48:04;5.25;;;3.72;;
46889;SDS011;32625;51.080;16.970;2022-10-01T14:50:33;6.97;;;4.22;;
46889;SDS011;32625;51.080;16.970;2022-10-01T14:53:03;9.23;;;3.60;;
46889;SDS011;32625;51.080;16.970;2022-10-01T14:55:32;12.52;;;4.38;;
46889;SDS011;32625;51.080;16.970;2022-10-01T14:58:01;5.75;;;4.00;;
46889;SDS011;32625;51.080;16.970;2022-10-01T15:00:30;6.25;;;5.10;;
46889;SDS011;32625;51.080;16.970;2022-10-01T15:03:13;7.45;;;4.68;;
46889;SDS011;32625;51.080;16.970;2022-10-01T15:05:44;5.53;;;3.67;;
46889;SDS011;32625;51.080;16.970;2022-10-01T15:08:14;6.10;;;4.22;;
46889;SDS011;32625;51.080;16.970;2022-10-01T15:10:52;7.07;;;4.50;;
46889;SDS011;32625;51.080;16.970;2022-10-01T15:13:34;8.27;;;4.22;;
46889;SDS011;32625;51.080;16.970;2022-10-01T15:16:04;6.03;;;2.97;;
46889;SDS011;32625;51.080;16.970;2022-10-01T15:18:36;2.83;;;2.08;;
46889;SDS011;32625;51.080;16.970;2022-10-01T15:21:07;2.92;;;2.42;;
46889;SDS011;32625;51.080;16.970;2022-10-01T15:23:46;3.70;;;2.33;;
46889;SDS011;32625;51.080;16.970;2022-10-01T15:26:17;4.75;;;2.65;;
46889;SDS011;32625;51.080;16.970;2022-10-01T15:28:59;4.07;;;3.28;;
46889;SDS011;32625;51.080;16.970;2022-10-01T15:31:30;6.13;;;5.38;;
46889;SDS011;32625;51.080;16.970;2022-10-01T15:34:00;8.02;;;5.32;;
46889;SDS011;32625;51.080;16.970;2022-10-01T15:36:29;6.93;;;4.75;;
46889;SDS011;32625;51.080;16.970;2022-10-01T15:38:59;6.57;;;4.43;;
46889;SDS011;32625;51.080;16.970;2022-10-01T15:41:30;4.60;;;3.85;;
46889;SDS011;32625;51.080;16.970;2022-10-01T15:44:01;6.43;;;4.80;;
46889;SDS011;32625;51.080;16.970;2022-10-01T15:46:31;5.30;;;3.63;;
46889;SDS011;32625;51.080;16.970;2022-10-01T15:51:59;5.88;;;3.10;;
46889;SDS011;32625;51.080;16.970;2022-10-01T15:54:55;3.92;;;2.67;;
46889;SDS011;32625;51.080;16.970;2022-10-01T15:57:25;5.65;;;3.78;;
46889;SDS011;32625;51.080;16.970;2022-10-01T15:59:55;4.18;;;3.22;;
46889;SDS011;32625;51.080;16.970;2022-10-01T16:02:25;5.10;;;2.53;;
46889;SDS011;32625;51.080;16.970;2022-10-01T16:05:02;5.57;;;2.60;;
46889;SDS011;32625;51.080;16.970;2022-10-01T16:07:31;3.95;;;2.83;;
46889;SDS011;32625;51.080;16.970;2022-10-01T16:10:17;3.13;;;2.60;;
46889;SDS011;32625;51.080;16.970;2022-10-01T16:13:41;4.57;;;3.17;;
46889;SDS011;32625;51.080;16.970;2022-10-01T16:16:17;7.03;;;4.07;;
46889;SDS011;32625;51.080;16.970;2022-10-01T16:18:57;7.10;;;4.80;;
46889;SDS011;32625;51.080;16.970;2022-10-01T16:24:48;6.63;;;4.50;;
46889;SDS011;32625;51.080;16.970;2022-10-01T16:27:21;4.65;;;3.55;;
46889;SDS011;32625;51.080;16.970;2022-10-01T16:29:57;6.03;;;3.50;;
46889;SDS011;32625;51.080;16.970;2022-10-01T16:32:34;5.57;;;3.40;;
46889;SDS011;32625;51.080;16.970;2022-10-01T16:37:44;4.65;;;3.38;;
46889;SDS011;32625;51.080;16.970;2022-10-01T16:40:15;3.92;;;3.05;;
46889;SDS011;32625;51.080;16.970;2022-10-01T16:42:47;3.58;;;2.83;;
46889;SDS011;32625;51.080;16.970;2022-10-01T16:45:22;5.03;;;3.35;;
46889;SDS011;32625;51.080;16.970;2022-10-01T16:47:54;4.78;;;4.22;;
46889;SDS011;32625;51.080;16.970;2022-10-01T16:50:25;6.63;;;4.60;;
46889;SDS011;32625;51.080;16.970;2022-10-01T16:52:52;6.45;;;4.40;;
46889;SDS011;32625;51.080;16.970;2022-10-01T16:55:23;6.63;;;4.30;;
46889;SDS011;32625;51.080;16.970;2022-10-01T16:57:52;4.55;;;3.58;;
46889;SDS011;32625;51.080;16.970;2022-10-01T17:00:21;4.38;;;3.53;;
46889;SDS011;32625;51.080;16.970;2022-10-01T17:02:51;3.60;;;2.95;;
46889;SDS011;32625;51.080;16.970;2022-10-01T17:11:17;5.63;;;3.00;;
46889;SDS011;32625;51.080;16.970;2022-10-01T17:13:45;4.47;;;3.22;;